Time;durP1;ratioP1;P1;durP2;ratioP2;P2;SDS_P1;SDS_P2;PMS_P1;PMS_P2;Temp;Humidity;BMP_temperature;BMP_pressure;BME280_temperature;BME280_humidity;BME280_pressure;Samples;Min_cycle;Max_cycle;Signal;HPM_P1;HPM_P2
2022/07/23 00:00:04;;;;;;;;;;;;;;;16.53;86.97;100673.44;5069889;28;1632;-83
2022/07/23 00:02:30;;;;;;;;;;;;;;;16.38;87.46;100686.81;5050764;28;1595;-83
2022/07/23 00:04:55;;;;;;;;;;;;;;;16.46;87.52;100681.38;5058519;28;1509;-83
2022/07/23 00:07:20;;;;;;;;;;;;;;;16.38;87.79;100664.72;5038534;28;1881;-84
2022/07/23 00:09:45;;;;;;;;;;;;;;;16.29;87.33;100667.44;5033659;28;1967;-83
2022/07/23 00:12:10;;;;;;;;;;;;;;;16.38;87.52;100668.31;5055576;28;1520;-83
2022/07/23 00:14:35;;;;;;;;;;;;;;;16.35;87.22;100671.69;5060212;28;1481;-83
2022/07/23 00:17:01;;;;;;;;;;;;;;;16.40;87.56;100668.00;5057627;28;1432;-83
2022/07/23 00:19:26;;;;;;;;;;;;;;;16.34;87.53;100663.72;5041938;28;1542;-84
2022/07/23 00:21:51;;;;;;;;;;;;;;;16.16;88.85;100671.09;5060686;28;1474;-84
2022/07/23 00:24:16;;;;;;;;;;;;;;;16.23;88.89;100668.69;5038161;28;1863;-83
2022/07/23 00:26:41;;;;;;;;;;;;;;;16.22;88.31;100662.34;5054959;28;1789;-83
2022/07/23 00:29:06;;;;;;;;;;;;;;;16.27;88.44;100662.22;5060103;28;1945;-83
2022/07/23 00:31:32;;;;;;;;;;;;;;;16.37;87.97;100655.63;5060538;28;1491;-83
2022/07/23 00:33:57;;;;;;;;;;;;;;;16.35;87.90;100651.53;5041458;28;1464;-82
2022/07/23 00:36:24;;;;;;;;;;;;;;;16.32;88.09;100655.75;5062330;28;1218;-83
2022/07/23 00:38:49;;;;;;;;;;;;;;;16.28;87.79;100658.31;5043575;28;1850;-83
2022/07/23 00:41:15;;;;;;;;;;;;;;;16.21;88.58;100640.56;5030733;28;1320;-83
2022/07/23 00:43:40;;;;;;;;;;;;;;;16.34;88.50;100638.84;5051932;28;1761;-83
2022/07/23 00:46:05;;;;;;;;;;;;;;;16.36;88.09;100629.13;5041234;28;1276;-83
2022/07/23 00:48:30;;;;;;;;;;;;;;;16.38;88.36;100634.34;5041326;28;1951;-83
2022/07/23 00:50:56;;;;;;;;;;;;;;;16.32;88.60;100630.91;5040869;28;1435;-83
2022/07/23 00:53:21;;;;;;;;;;;;;;;16.18;88.83;100636.47;5041915;28;1215;-83
2022/07/23 00:55:47;;;;;;;;;;;;;;;16.28;89.37;100630.72;5060297;28;995;-83
2022/07/23 00:58:12;;;;;;;;;;;;;;;16.18;88.49;100621.84;5041574;28;1169;-83
2022/07/23 01:00:37;;;;;;;;;;;;;;;16.26;88.81;100616.38;5059924;28;1255;-83
2022/07/23 01:03:02;;;;;;;;;;;;;;;16.27;88.37;100615.25;5048538;28;1081;-83
2022/07/23 01:05:28;;;;;;;;;;;;;;;16.12;88.30;100614.84;5033560;28;1193;-83
2022/07/23 01:07:53;;;;;;;;;;;;;;;16.17;88.12;100611.94;5059100;28;1898;-83
2022/07/23 01:10:33;;;;;;;;;;;;;;;16.15;88.17;100611.47;5064476;28;1203;-83
2022/07/23 01:13:03;;;;;;;;;;;;;;;16.15;88.60;100601.22;5069475;28;924;-83
2022/07/23 01:15:28;;;;;;;;;;;;;;;16.16;88.38;100604.81;5060474;28;1439;-83
2022/07/23 01:17:53;;;;;;;;;;;;;;;16.13;88.37;100614.53;5041015;28;1239;-83
2022/07/23 01:20:19;;;;;;;;;;;;;;;16.15;88.59;100617.78;5059253;28;1367;-83
2022/07/23 01:22:44;;;;;;;;;;;;;;;16.18;87.76;100622.66;5059164;28;1031;-83
2022/07/23 01:25:10;;;;;;;;;;;;;;;16.17;88.04;100626.56;5041412;28;1176;-83
2022/07/23 01:27:35;;;;;;;;;;;;;;;16.21;87.91;100630.34;5058850;28;1928;-83
2022/07/23 01:30:00;;;;;;;;;;;;;;;16.24;88.05;100638.00;5059180;28;1188;-83
2022/07/23 01:32:26;;;;;;;;;;;;;;;16.27;87.98;100642.06;5058689;28;1165;-83
2022/07/23 01:34:51;;;;;;;;;;;;;;;16.33;87.88;100645.53;5058931;28;860;-83
2022/07/23 01:37:16;;;;;;;;;;;;;;;16.33;87.79;100649.13;5059479;28;814;-83
2022/07/23 01:39:41;;;;;;;;;;;;;;;16.18;87.88;100630.97;5040853;28;1663;-83
2022/07/23 01:42:06;;;;;;;;;;;;;;;16.25;88.61;100647.91;5058130;28;1199;-83
2022/07/23 01:44:31;;;;;;;;;;;;;;;16.22;88.63;100651.31;5040424;28;1232;-83
2022/07/23 01:46:57;;;;;;;;;;;;;;;16.12;89.10;100646.03;5057957;28;1590;-83
2022/07/23 01:49:22;;;;;;;;;;;;;;;16.17;89.18;100642.31;5051835;28;1939;-83
2022/07/23 01:52:02;;;;;;;;;;;;;;;16.20;89.05;100653.56;5058265;28;1294;-83
2022/07/23 01:54:28;;;;;;;;;;;;;;;16.00;89.74;100656.81;5046065;28;1288;-83
2022/07/23 01:56:54;;;;;;;;;;;;;;;16.11;89.91;100660.16;5039433;28;786;-82
2022/07/23 01:59:19;;;;;;;;;;;;;;;16.17;89.26;100662.47;5052018;28;1699;-83
2022/07/23 02:01:44;;;;;;;;;;;;;;;16.18;89.28;100658.56;5056377;28;1290;-83
2022/07/23 02:04:09;;;;;;;;;;;;;;;16.24;88.70;100654.56;5057471;28;1221;-83
2022/07/23 02:06:34;;;;;;;;;;;;;;;16.14;88.44;100660.34;5064332;28;1079;-83
2022/07/23 02:08:59;;;;;;;;;;;;;;;16.14;88.86;100660.34;5038285;28;1886;-83
2022/07/23 02:11:24;;;;;;;;;;;;;;;16.12;89.09;100664.53;5040227;28;1665;-83
2022/07/23 02:13:50;;;;;;;;;;;;;;;16.11;89.27;100663.72;5057143;28;1777;-83
2022/07/23 02:16:15;;;;;;;;;;;;;;;16.19;88.73;100673.19;5057379;28;1336;-83
2022/07/23 02:18:40;;;;;;;;;;;;;;;16.07;89.19;100675.72;5040184;28;1365;-83
2022/07/23 02:21:05;;;;;;;;;;;;;;;16.02;89.65;100678.59;5047651;28;1474;-83
2022/07/23 02:23:30;;;;;;;;;;;;;;;16.00;89.70;100678.91;5061929;28;1154;-83
2022/07/23 02:25:55;;;;;;;;;;;;;;;16.07;89.58;100679.31;5042611;28;1273;-83
2022/07/23 02:28:20;;;;;;;;;;;;;;;16.15;89.75;100664.75;5061411;28;1902;-83
2022/07/23 02:30:46;;;;;;;;;;;;;;;16.20;89.27;100663.78;5037445;28;1263;-83
2022/07/23 02:33:11;;;;;;;;;;;;;;;16.15;89.29;100658.41;5049238;28;1289;-83
2022/07/23 02:35:36;;;;;;;;;;;;;;;16.11;90.17;100666.47;5062030;28;1390;-83
2022/07/23 02:38:01;;;;;;;;;;;;;;;16.17;90.16;100675.44;5040635;28;1491;-83
2022/07/23 02:40:26;;;;;;;;;;;;;;;16.22;89.56;100667.88;5065451;28;1367;-83
2022/07/23 02:42:51;;;;;;;;;;;;;;;16.19;89.48;100671.25;5066910;28;1600;-83
2022/07/23 02:45:17;;;;;;;;;;;;;;;16.17;89.91;100662.47;5060802;28;1647;-82
2022/07/23 02:47:42;;;;;;;;;;;;;;;16.21;89.67;100657.97;5061155;28;1941;-82
2022/07/23 02:50:07;;;;;;;;;;;;;;;16.25;90.05;100649.84;5061238;28;1284;-83
2022/07/23 02:52:32;;;;;;;;;;;;;;;16.28;89.62;100647.28;5061737;28;1370;-83
2022/07/23 02:54:57;;;;;;;;;;;;;;;16.26;89.71;100621.09;5061633;28;1854;-83
2022/07/23 02:57:23;;;;;;;;;;;;;;;16.23;89.97;100630.03;5043880;28;1344;-83
2022/07/23 02:59:48;;;;;;;;;;;;;;;16.13;90.08;100635.81;5094849;22;1737;-88
2022/07/23 03:02:13;;;;;;;;;;;;;;;16.09;90.38;100618.22;5017913;28;1173;-88
2022/07/23 03:04:38;;;;;;;;;;;;;;;16.00;90.54;100614.56;5018242;28;1329;-88
2022/07/23 03:07:03;;;;;;;;;;;;;;;16.07;90.63;100585.41;5036019;28;1167;-88
2022/07/23 03:09:28;;;;;;;;;;;;;;;16.09;91.02;100574.84;5014928;28;1942;-88
2022/07/23 03:11:53;;;;;;;;;;;;;;;16.16;91.06;100589.03;4998696;28;1316;-87
2022/07/23 03:14:19;;;;;;;;;;;;;;;16.02;91.23;100615.91;5010786;28;1797;-87
2022/07/23 03:16:44;;;;;;;;;;;;;;;15.99;91.72;100611.00;4998321;28;1307;-87
2022/07/23 03:19:09;;;;;;;;;;;;;;;16.00;91.80;100615.41;4998327;28;1330;-88
2022/07/23 03:21:35;;;;;;;;;;;;;;;16.07;91.96;100609.47;5007723;28;1016;-88
2022/07/23 03:24:01;;;;;;;;;;;;;;;16.00;91.65;100600.78;4996883;28;903;-88
2022/07/23 03:26:26;;;;;;;;;;;;;;;16.03;92.06;100600.16;4994301;28;1330;-88
2022/07/23 03:28:52;;;;;;;;;;;;;;;16.03;92.11;100598.22;4991531;28;1907;-88
2022/07/23 03:31:17;;;;;;;;;;;;;;;16.05;92.12;100593.19;5016170;28;1382;-88
2022/07/23 03:33:42;;;;;;;;;;;;;;;16.05;91.98;100603.44;4998235;28;1505;-88
2022/07/23 03:36:08;;;;;;;;;;;;;;;15.95;92.07;100598.97;4998523;28;1312;-88
2022/07/23 03:38:34;;;;;;;;;;;;;;;15.95;92.09;100600.91;5011316;28;1287;-88
2022/07/23 03:40:59;;;;;;;;;;;;;;;15.97;92.03;100596.72;4996210;28;1360;-88
2022/07/23 03:43:25;;;;;;;;;;;;;;;16.05;92.19;100584.09;4997936;28;1628;-88
2022/07/23 03:45:50;;;;;;;;;;;;;;;16.09;91.72;100596.94;4998048;28;1338;-89
2022/07/23 03:48:15;;;;;;;;;;;;;;;15.89;92.05;100603.00;4998812;28;1875;-88
2022/07/23 03:50:41;;;;;;;;;;;;;;;15.86;92.71;100607.19;4998388;28;1670;-89
2022/07/23 03:53:06;;;;;;;;;;;;;;;15.87;92.88;100622.63;4998362;28;1272;-88
2022/07/23 03:55:32;;;;;;;;;;;;;;;15.93;92.93;100606.75;4996024;28;1494;-87
2022/07/23 03:57:57;;;;;;;;;;;;;;;15.97;92.32;100599.47;4992940;28;1322;-88
2022/07/23 04:00:22;;;;;;;;;;;;;;;16.03;92.34;100600.97;4998005;28;1378;-88
2022/07/23 04:02:47;;;;;;;;;;;;;;;16.03;91.93;100589.94;4998574;28;1422;-88
2022/07/23 04:05:13;;;;;;;;;;;;;;;16.01;92.22;100592.19;4997786;28;1070;-87
2022/07/23 04:07:38;;;;;;;;;;;;;;;15.96;92.39;100595.06;4998175;28;1176;-88
2022/07/23 04:10:03;;;;;;;;;;;;;;;15.94;91.79;100594.56;4997653;28;1871;-88
2022/07/23 04:12:28;;;;;;;;;;;;;;;15.90;92.40;100588.06;4997683;28;1338;-89
2022/07/23 04:14:53;;;;;;;;;;;;;;;15.89;92.27;100586.44;4982818;28;1165;-88
2022/07/23 04:17:19;;;;;;;;;;;;;;;15.93;92.57;100584.66;4978423;28;956;-88
2022/07/23 04:19:44;;;;;;;;;;;;;;;15.86;92.37;100582.34;4983339;28;1560;-89
2022/07/23 04:22:10;;;;;;;;;;;;;;;15.87;92.79;100595.00;4997268;28;1317;-89
2022/07/23 04:24:35;;;;;;;;;;;;;;;15.80;93.14;100607.63;5014535;28;1484;-89
2022/07/23 04:27:01;;;;;;;;;;;;;;;15.78;93.19;100607.13;4997630;28;1327;-89
2022/07/23 04:29:26;;;;;;;;;;;;;;;15.82;93.52;100616.41;4997950;28;1910;-89
2022/07/23 04:31:51;;;;;;;;;;;;;;;15.85;93.31;100619.34;5002474;28;1154;-88
2022/07/23 04:34:17;;;;;;;;;;;;;;;15.88;93.42;100612.41;4997629;28;1356;-88
2022/07/23 04:36:42;;;;;;;;;;;;;;;15.91;92.85;100611.75;4998543;28;1268;-88
2022/07/23 04:39:07;;;;;;;;;;;;;;;15.93;92.86;100609.50;4999169;28;1188;-90
2022/07/23 04:41:34;;;;;;;;;;;;;;;15.95;92.79;100623.00;5004194;28;1280;-89
2022/07/23 04:43:59;;;;;;;;;;;;;;;15.91;92.63;100616.50;4978128;28;1439;-89
2022/07/23 04:46:24;;;;;;;;;;;;;;;15.98;92.65;100625.97;4978668;28;1366;-89
2022/07/23 04:48:49;;;;;;;;;;;;;;;15.98;92.49;100616.84;4995581;28;1952;-88
2022/07/23 04:51:14;;;;;;;;;;;;;;;15.92;92.49;100624.44;4995521;28;1194;-88
2022/07/23 04:53:39;;;;;;;;;;;;;;;15.84;92.63;100627.94;4978144;28;1046;-88
2022/07/23 04:56:05;;;;;;;;;;;;;;;15.88;93.25;100606.88;4977947;28;967;-88
2022/07/23 04:58:31;;;;;;;;;;;;;;;15.86;93.67;100617.41;4977939;28;1177;-88
2022/07/23 05:00:57;;;;;;;;;;;;;;;15.88;93.59;100617.91;4992277;28;1477;-88
2022/07/23 05:03:22;;;;;;;;;;;;;;;15.91;93.50;100614.50;4997479;28;1216;-88
2022/07/23 05:05:48;;;;;;;;;;;;;;;15.91;93.27;100619.25;4997389;28;1158;-88
2022/07/23 05:08:13;;;;;;;;;;;;;;;15.92;93.47;100620.84;4997104;28;1898;-89
2022/07/23 05:10:38;;;;;;;;;;;;;;;15.92;93.47;100624.44;4988255;28;1318;-88
2022/07/23 05:13:03;;;;;;;;;;;;;;;15.84;93.50;100630.69;4977780;28;729;-88
2022/07/23 05:15:28;;;;;;;;;;;;;;;15.81;94.06;100637.69;4977559;28;1240;-88
2022/07/23 05:17:53;;;;;;;;;;;;;;;15.78;93.96;100641.06;4978792;28;1640;-88
2022/07/23 05:20:18;;;;;;;;;;;;;;;15.84;94.06;100638.97;4997230;28;1201;-88
2022/07/23 05:22:44;;;;;;;;;;;;;;;15.87;93.70;100632.84;4996928;28;1228;-88
2022/07/23 05:25:09;;;;;;;;;;;;;;;15.95;93.85;100634.03;4997011;28;1008;-88
2022/07/23 05:27:34;;;;;;;;;;;;;;;16.07;93.65;100632.38;4997230;28;1314;-88
2022/07/23 05:29:59;;;;;;;;;;;;;;;16.05;93.79;100629.09;4996925;28;1886;-88
2022/07/23 05:32:24;;;;;;;;;;;;;;;16.06;93.35;100630.72;4992753;28;1623;-88
2022/07/23 05:34:49;;;;;;;;;;;;;;;16.11;93.55;100630.59;4996607;28;1347;-89
2022/07/23 05:37:15;;;;;;;;;;;;;;;16.12;93.42;100626.69;4997184;28;886;-88
2022/07/23 05:39:40;;;;;;;;;;;;;;;16.17;93.23;100623.81;4987376;28;1333;-89
2022/07/23 05:42:05;;;;;;;;;;;;;;;16.28;93.51;100627.13;4996305;28;1362;-88
2022/07/23 05:44:30;;;;;;;;;;;;;;;16.32;92.49;100630.91;4997009;28;1320;-88
2022/07/23 05:46:55;;;;;;;;;;;;;;;16.22;92.44;100634.75;4992790;28;1600;-89
2022/07/23 05:49:20;;;;;;;;;;;;;;;16.26;92.70;100634.91;4996041;28;1906;-89
2022/07/23 05:51:46;;;;;;;;;;;;;;;16.28;92.64;100627.94;4996001;28;1339;-89
2022/07/23 05:54:11;;;;;;;;;;;;;;;16.35;93.20;100621.16;5013634;28;1797;-89
2022/07/23 05:56:36;;;;;;;;;;;;;;;16.32;92.55;100638.38;4997819;28;1308;-89
2022/07/23 05:59:01;;;;;;;;;;;;;;;16.25;93.15;100638.78;4991573;28;1801;-89
2022/07/23 06:01:26;;;;;;;;;;;;;;;16.23;92.46;100630.84;4993383;28;1508;-89
2022/07/23 06:03:51;;;;;;;;;;;;;;;16.18;92.55;100633.72;5000272;28;1149;-89
2022/07/23 06:06:17;;;;;;;;;;;;;;;16.18;92.71;100630.97;5017847;28;1047;-89
2022/07/23 06:08:42;;;;;;;;;;;;;;;16.21;93.08;100643.34;5010435;28;1898;-88
2022/07/23 06:11:07;;;;;;;;;;;;;;;16.22;92.99;100634.75;4996445;28;1226;-89
2022/07/23 06:13:32;;;;;;;;;;;;;;;16.21;93.54;100635.88;4999641;28;1181;-89
2022/07/23 06:15:57;;;;;;;;;;;;;;;16.24;93.36;100640.78;4996634;28;1182;-88
2022/07/23 06:18:22;;;;;;;;;;;;;;;16.20;93.82;100641.69;4999970;28;1407;-89
2022/07/23 06:20:48;;;;;;;;;;;;;;;16.19;94.20;100640.88;4999702;28;1354;-88
2022/07/23 06:23:13;;;;;;;;;;;;;;;16.20;94.35;100653.56;4999338;28;1202;-88
2022/07/23 06:25:38;;;;;;;;;;;;;;;16.18;94.75;100658.56;4999520;28;1296;-89
2022/07/23 06:28:03;;;;;;;;;;;;;;;16.15;94.88;100655.66;4996899;28;1947;-89
2022/07/23 06:30:28;;;;;;;;;;;;;;;16.20;95.04;100658.25;4991162;28;1263;-89
2022/07/23 06:32:54;;;;;;;;;;;;;;;16.20;95.05;100663.78;4997715;28;864;-90
2022/07/23 06:35:19;;;;;;;;;;;;;;;16.22;95.12;100662.34;4988034;28;1483;-89
2022/07/23 06:37:44;;;;;;;;;;;;;;;16.41;94.68;100664.09;4995808;28;1419;-89
2022/07/23 06:40:09;;;;;;;;;;;;;;;16.52;94.53;100673.75;4996779;28;1964;-90
2022/07/23 06:42:36;;;;;;;;;;;;;;;16.61;94.25;100666.34;5016868;28;1564;-90
2022/07/23 06:45:02;;;;;;;;;;;;;;;16.73;94.53;100676.84;4999843;28;1338;-89
2022/07/23 06:47:27;;;;;;;;;;;;;;;16.77;93.98;100666.75;4998986;28;1625;-90
2022/07/23 06:49:52;;;;;;;;;;;;;;;16.85;94.17;100669.56;4999412;28;1907;-89
2022/07/23 06:52:17;;;;;;;;;;;;;;;16.98;93.53;100676.13;4999711;28;1774;-89
2022/07/23 06:54:43;;;;;;;;;;;;;;;17.11;94.07;100677.16;4999055;28;1522;-88
2022/07/23 06:57:08;;;;;;;;;;;;;;;17.17;93.02;100673.94;4999186;28;1119;-88
2022/07/23 06:59:36;;;;;;;;;;;;;;;17.17;91.58;100673.94;4999035;28;1397;-89
2022/07/23 07:02:01;;;;;;;;;;;;;;;17.21;92.20;100677.69;4992617;28;1619;-89
2022/07/23 07:04:26;;;;;;;;;;;;;;;17.22;90.40;100670.19;4998573;28;1652;-89
2022/07/23 07:06:51;;;;;;;;;;;;;;;17.24;87.98;100681.78;4998416;28;1371;-89
2022/07/23 07:09:16;;;;;;;;;;;;;;;17.34;87.68;100685.06;5010094;28;1965;-89
2022/07/23 07:11:41;;;;;;;;;;;;;;;17.39;88.77;100675.78;4999259;28;1419;-89
2022/07/23 07:14:07;;;;;;;;;;;;;;;17.42;89.38;100688.19;5000449;28;1371;-89
2022/07/23 07:16:32;;;;;;;;;;;;;;;17.32;89.43;100687.34;5000978;28;1207;-89
2022/07/23 07:18:57;;;;;;;;;;;;;;;17.19;90.65;100690.19;5001005;28;1228;-88
2022/07/23 07:21:22;;;;;;;;;;;;;;;17.13;88.50;100694.25;5000035;28;1198;-88
2022/07/23 07:23:47;;;;;;;;;;;;;;;17.11;87.56;100693.75;5021548;28;1835;-87
2022/07/23 07:26:12;;;;;;;;;;;;;;;17.00;87.76;100696.81;5016272;28;1211;-87
2022/07/23 07:28:37;;;;;;;;;;;;;;;16.90;87.81;100699.84;4998568;28;1958;-88
2022/07/23 07:31:03;;;;;;;;;;;;;;;16.87;88.04;100703.25;4998668;28;1308;-89
2022/07/23 07:33:28;;;;;;;;;;;;;;;16.86;85.27;100703.56;4998992;28;1334;-88
2022/07/23 07:35:53;;;;;;;;;;;;;;;16.91;85.22;100707.03;5016353;28;806;-87
2022/07/23 07:38:19;;;;;;;;;;;;;;;17.03;83.27;100707.22;4998304;28;1176;-87
2022/07/23 07:40:44;;;;;;;;;;;;;;;17.31;82.53;100713.38;4997141;28;1620;-86
2022/07/23 07:43:09;;;;;;;;;;;;;;;17.48;83.20;100701.53;4994722;28;1450;-86
2022/07/23 07:45:34;;;;;;;;;;;;;;;17.49;83.30;100703.16;5030553;28;1123;-86
2022/07/23 07:47:59;;;;;;;;;;;;;;;17.45;85.19;100707.69;5007733;28;1894;-86
2022/07/23 07:50:25;;;;;;;;;;;;;;;17.40;84.43;100708.69;5006044;28;1382;-86
2022/07/23 07:52:50;;;;;;;;;;;;;;;17.41;81.95;100715.03;5005988;28;1242;-87
2022/07/23 07:55:15;;;;;;;;;;;;;;;17.39;79.79;100714.53;4999027;28;1454;-86
2022/07/23 07:57:40;;;;;;;;;;;;;;;17.30;79.04;100720.03;4992384;28;1383;-86
2022/07/23 08:00:06;;;;;;;;;;;;;;;17.37;79.13;100714.03;5005419;28;1390;-87
2022/07/23 08:02:45;;;;;;;;;;;;;;;17.48;78.95;100715.38;5010581;28;1351;-87
2022/07/23 08:05:11;;;;;;;;;;;;;;;17.64;79.45;100711.03;4995249;28;1314;-88
2022/07/23 08:07:37;;;;;;;;;;;;;;;17.78;80.70;100713.66;5004509;28;933;-87
2022/07/23 08:10:02;;;;;;;;;;;;;;;17.82;79.11;100713.84;5015246;28;1905;-87
2022/07/23 08:12:27;;;;;;;;;;;;;;;17.82;79.37;100716.63;4997712;28;1819;-88
2022/07/23 08:14:53;;;;;;;;;;;;;;;17.83;78.20;100721.00;5014802;28;980;-88
2022/07/23 08:17:18;;;;;;;;;;;;;;;17.75;77.05;100723.44;4997471;28;1072;-88
2022/07/23 08:19:43;;;;;;;;;;;;;;;17.79;78.23;100726.38;5014016;28;1292;-87
2022/07/23 08:22:08;;;;;;;;;;;;;;;17.87;77.98;100727.53;5015051;28;1027;-87
2022/07/23 08:24:33;;;;;;;;;;;;;;;17.88;76.49;100729.16;4997304;28;1294;-88
2022/07/23 08:26:58;;;;;;;;;;;;;;;17.97;74.88;100732.75;4993897;28;941;-87
2022/07/23 08:29:24;;;;;;;;;;;;;;;17.98;74.39;100734.38;4996716;28;1963;-88
2022/07/23 08:31:49;;;;;;;;;;;;;;;17.98;75.49;100737.16;4994808;28;1430;-86
2022/07/23 08:34:14;;;;;;;;;;;;;;;17.96;73.15;100731.13;4996988;28;1022;-89
2022/07/23 08:36:39;;;;;;;;;;;;;;;18.11;75.10;100730.66;5014713;28;999;-87
2022/07/23 08:39:04;;;;;;;;;;;;;;;18.00;75.35;100704.41;5014385;28;1760;-86
2022/07/23 08:41:29;;;;;;;;;;;;;;;18.11;76.57;100738.97;4997047;28;1304;-87
2022/07/23 08:43:55;;;;;;;;;;;;;;;17.88;74.82;100745.78;4996770;28;1309;-87
2022/07/23 08:46:20;;;;;;;;;;;;;;;17.97;74.85;100743.84;5009578;28;1223;-87
2022/07/23 08:48:47;;;;;;;;;;;;;;;18.14;74.76;100741.91;5014029;28;1948;-87
2022/07/23 08:51:12;;;;;;;;;;;;;;;18.23;74.08;100746.63;4989488;28;1753;-87
2022/07/23 08:53:38;;;;;;;;;;;;;;;18.36;74.25;100735.41;4996743;28;1308;-87
2022/07/23 08:56:04;;;;;;;;;;;;;;;18.24;73.52;100746.31;4996328;28;1407;-87
2022/07/23 08:58:30;;;;;;;;;;;;;;;18.14;74.56;100752.16;4996905;28;1133;-87
2022/07/23 09:00:56;;;;;;;;;;;;;;;18.12;73.11;100741.41;5048390;23;3633;-86
2022/07/23 09:03:22;;;;;;;;;;;;;;;18.32;73.72;100745.47;5052195;28;1571;-87
2022/07/23 09:05:49;;;;;;;;;;;;;;;18.58;75.93;100753.00;5035895;28;1489;-86
2022/07/23 09:08:16;;;;;;;;;;;;;;;18.46;70.79;100754.44;5036818;28;2240;-86
2022/07/23 09:10:51;;;;;;;;;;;;;;;18.45;74.26;100754.78;5053428;28;1392;-87
2022/07/23 09:13:30;;;;;;;;;;;;;;;18.32;74.20;100759.34;5043192;28;1726;-86
2022/07/23 09:15:57;;;;;;;;;;;;;;;18.15;74.22;100757.38;5043822;28;1429;-85
2022/07/23 09:18:49;;;;;;;;;;;;;;;18.11;71.82;100750.88;5043485;28;1445;-86
2022/07/23 09:21:18;;;;;;;;;;;;;;;18.32;73.37;100745.47;5053505;28;1338;-86
2022/07/23 09:23:44;;;;;;;;;;;;;;;18.52;74.41;100755.09;5048963;28;1753;-85
2022/07/23 09:26:16;;;;;;;;;;;;;;;18.68;73.37;100753.47;5063353;28;1137;-85
2022/07/23 09:28:58;;;;;;;;;;;;;;;18.64;73.55;100752.50;5062846;28;1886;-85
2022/07/23 09:31:24;;;;;;;;;;;;;;;18.49;72.51;100751.03;5046322;28;1361;-86
2022/07/23 09:33:50;;;;;;;;;;;;;;;18.53;74.09;100753.97;5043604;28;1592;-85
2022/07/23 09:36:15;;;;;;;;;;;;;;;18.56;71.33;100753.28;5058713;28;1286;-85
2022/07/23 09:38:47;;;;;;;;;;;;;;;18.56;72.98;100760.78;5074302;28;1339;-85
2022/07/23 09:41:13;;;;;;;;;;;;;;;18.71;69.23;100754.78;5043446;28;1276;-85
2022/07/23 09:43:38;;;;;;;;;;;;;;;18.84;71.40;100751.00;5059070;28;888;-85
2022/07/23 09:46:23;;;;;;;;;;;;;;;18.97;72.94;100760.28;5058355;28;987;-85
2022/07/23 09:48:51;;;;;;;;;;;;;;;18.72;69.18;100748.06;5027056;28;1871;-85
2022/07/23 09:51:24;;;;;;;;;;;;;;;18.74;71.04;100743.84;5040744;28;1307;-86
2022/07/23 09:53:49;;;;;;;;;;;;;;;18.80;72.73;100744.47;5038441;28;1361;-85
2022/07/23 09:56:15;;;;;;;;;;;;;;;18.80;70.79;100755.56;5029532;28;1379;-85
2022/07/23 09:58:45;;;;;;;;;;;;;;;18.70;70.32;100755.94;5034269;28;1267;-85
2022/07/23 10:01:10;;;;;;;;;;;;;;;18.71;72.12;100757.56;5045525;28;1425;-85
2022/07/23 10:03:36;;;;;;;;;;;;;;;18.69;71.45;100755.13;5031391;28;1667;-86
2022/07/23 10:06:01;;;;;;;;;;;;;;;18.87;70.69;100761.44;5051401;28;1785;-85
2022/07/23 10:08:26;;;;;;;;;;;;;;;19.07;69.93;100746.03;5037157;28;2027;-84
2022/07/23 10:10:53;;;;;;;;;;;;;;;19.28;69.79;100744.19;5034740;28;1756;-85
2022/07/23 10:16:02;;;;;;;;;;;;;;;19.18;68.73;100744.53;5052237;28;1373;-85
2022/07/23 10:18:27;;;;;;;;;;;;;;;19.06;72.43;100750.78;5051278;28;1537;-85
2022/07/23 10:20:53;;;;;;;;;;;;;;;18.90;70.35;100750.50;5053606;28;1636;-86
2022/07/23 10:23:28;;;;;;;;;;;;;;;18.84;71.40;100749.03;5035124;28;1417;-86
2022/07/23 10:25:56;;;;;;;;;;;;;;;18.96;70.87;100742.81;5024840;28;1556;-84
2022/07/23 10:28:21;;;;;;;;;;;;;;;19.20;71.89;100745.03;5041083;28;1961;-84
2022/07/23 10:31:05;;;;;;;;;;;;;;;19.40;68.88;100733.16;5038760;28;1626;-85
2022/07/23 10:33:37;;;;;;;;;;;;;;;19.53;72.17;100737.72;5031891;28;1442;-85
2022/07/23 10:36:14;;;;;;;;;;;;;;;19.53;69.64;100734.13;5055888;28;1150;-86
2022/07/23 10:38:45;;;;;;;;;;;;;;;19.56;68.10;100733.47;5052811;28;1503;-86
2022/07/23 10:41:10;;;;;;;;;;;;;;;19.46;71.64;100748.50;5035448;28;1355;-86
2022/07/23 10:43:35;;;;;;;;;;;;;;;19.29;70.39;100748.59;5038512;28;1142;-85
2022/07/23 10:46:22;;;;;;;;;;;;;;;19.27;70.82;100743.34;5039592;28;1085;-86
2022/07/23 10:49:07;;;;;;;;;;;;;;;19.34;69.76;100740.06;5058049;28;1882;-85
2022/07/23 10:51:32;;;;;;;;;;;;;;;19.47;70.52;100741.84;5056627;28;1257;-86
2022/07/23 10:53:58;;;;;;;;;;;;;;;19.63;70.67;100736.53;5059621;28;1118;-86
2022/07/23 10:56:42;;;;;;;;;;;;;;;19.81;67.70;100732.50;5042254;28;1299;-86
2022/07/23 10:59:07;;;;;;;;;;;;;;;19.87;71.79;100736.69;5042920;28;1183;-86
2022/07/23 11:01:39;;;;;;;;;;;;;;;19.74;66.50;100734.97;5042039;28;1200;-86
2022/07/23 11:04:07;;;;;;;;;;;;;;;19.73;68.56;100735.34;5059777;28;995;-86
2022/07/23 11:06:50;;;;;;;;;;;;;;;19.89;68.34;100734.41;5057242;28;1398;-86
2022/07/23 11:09:34;;;;;;;;;;;;;;;19.89;67.01;100725.25;5041669;28;1891;-86
2022/07/23 11:12:18;;;;;;;;;;;;;;;19.87;67.99;100728.38;5042239;28;1187;-86
2022/07/23 11:15:02;;;;;;;;;;;;;;;19.93;69.18;100727.00;5042022;28;1158;-86
2022/07/23 11:17:28;;;;;;;;;;;;;;;19.91;67.24;100729.31;5042422;28;1271;-86
2022/07/23 11:20:08;;;;;;;;;;;;;;;19.75;68.10;100731.03;5042930;28;1261;-86
2022/07/23 11:22:47;;;;;;;;;;;;;;;19.75;68.26;100728.28;5042359;28;1395;-86
2022/07/23 11:25:13;;;;;;;;;;;;;;;19.88;67.14;100730.00;5060496;28;1058;-86
2022/07/23 11:27:42;;;;;;;;;;;;;;;20.01;67.11;100725.31;5059715;28;860;-86
2022/07/23 11:30:08;;;;;;;;;;;;;;;20.13;68.32;100727.34;5058761;28;1890;-86
2022/07/23 11:32:35;;;;;;;;;;;;;;;20.03;67.57;100726.63;5039363;28;1134;-86
2022/07/23 11:35:00;;;;;;;;;;;;;;;19.99;66.00;100720.09;5056777;28;825;-86
2022/07/23 11:37:29;;;;;;;;;;;;;;;19.95;65.66;100719.16;5056482;28;809;-85
2022/07/23 11:39:55;;;;;;;;;;;;;;;20.00;66.19;100705.03;5056438;28;1366;-86
2022/07/23 11:42:20;;;;;;;;;;;;;;;20.16;66.94;100710.00;5038731;28;1302;-86
2022/07/23 11:44:46;;;;;;;;;;;;;;;20.21;65.45;100704.25;5037965;28;962;-85
2022/07/23 11:47:12;;;;;;;;;;;;;;;20.27;64.53;100714.00;5038732;28;1133;-85
2022/07/23 11:49:38;;;;;;;;;;;;;;;20.25;67.18;100721.84;5037960;28;1890;-86
2022/07/23 11:52:04;;;;;;;;;;;;;;;20.30;66.02;100707.75;5037826;28;1439;-85
2022/07/23 11:54:29;;;;;;;;;;;;;;;20.27;66.98;100706.47;5037578;28;1716;-86
2022/07/23 11:56:55;;;;;;;;;;;;;;;20.35;65.02;100708.38;5039721;28;1157;-86
2022/07/23 11:59:21;;;;;;;;;;;;;;;20.36;65.43;100709.19;5039696;28;1312;-86
2022/07/23 12:01:56;;;;;;;;;;;;;;;20.38;65.38;100707.72;5039794;28;1190;-86
2022/07/23 12:04:21;;;;;;;;;;;;;;;20.47;66.27;100713.19;5039039;28;1227;-86
2022/07/23 12:06:46;;;;;;;;;;;;;;;20.53;67.62;100711.81;5037646;28;1184;-86
2022/07/23 12:09:12;;;;;;;;;;;;;;;20.58;64.70;100708.03;5055159;28;1902;-86
2022/07/23 12:11:37;;;;;;;;;;;;;;;20.65;64.50;100706.31;5055771;28;1186;-86
2022/07/23 12:14:02;;;;;;;;;;;;;;;20.64;64.68;100710.25;5058033;28;1003;-86
2022/07/23 12:16:27;;;;;;;;;;;;;;;20.72;63.31;100714.91;5057529;28;806;-86
2022/07/23 12:18:53;;;;;;;;;;;;;;;20.72;63.31;100714.91;5058431;28;798;-86
2022/07/23 12:21:18;;;;;;;;;;;;;;;20.72;63.35;100708.53;5040219;28;1278;-86
2022/07/23 12:23:47;;;;;;;;;;;;;;;20.66;62.91;100705.16;5057816;28;1047;-86
2022/07/23 12:26:13;;;;;;;;;;;;;;;20.66;63.92;100709.91;5038864;28;1906;-86
2022/07/23 12:28:39;;;;;;;;;;;;;;;20.76;64.56;100710.25;5036609;28;1940;-86
2022/07/23 12:31:05;;;;;;;;;;;;;;;20.94;64.13;100710.88;5056825;28;1681;-87
2022/07/23 12:33:30;;;;;;;;;;;;;;;21.02;64.37;100711.94;5055663;28;1533;-85
2022/07/23 12:35:57;;;;;;;;;;;;;;;20.82;61.72;100718.41;5037215;28;1329;-86
2022/07/23 12:38:23;;;;;;;;;;;;;;;20.78;64.14;100719.09;5037065;28;1467;-86
2022/07/23 12:40:50;;;;;;;;;;;;;;;20.91;61.12;100721.91;5037003;28;1200;-85
2022/07/23 12:43:20;;;;;;;;;;;;;;;21.01;61.48;100707.56;5037219;28;1242;-86
2022/07/23 12:45:52;;;;;;;;;;;;;;;21.09;61.71;100715.81;5055730;28;1061;-86